sensor_id;sensor_type;location;lat;lon;timestamp;P1;durP1;ratioP1;P2;durP2;ratioP2
9767;SDS011;4923;52.520;13.494;2023-04-24T00:02:13;3.00;;;2.80;;
9767;SDS011;4923;52.520;13.494;2023-04-24T00:05:01;3.13;;;2.95;;
9767;SDS011;4923;52.520;13.494;2023-04-24T00:07:48;2.60;;;2.42;;
9767;SDS011;4923;52.520;13.494;2023-04-24T00:10:37;3.40;;;3.10;;
9767;SDS011;4923;52.520;13.494;2023-04-24T00:13:24;2.97;;;2.80;;
9767;SDS011;4923;52.520;13.494;2023-04-24T00:16:13;3.15;;;2.95;;
9767;SDS011;4923;52.520;13.494;2023-04-24T00:19:01;3.42;;;3.22;;
9767;SDS011;4923;52.520;13.494;2023-04-24T00:21:48;3.50;;;3.40;;
9767;SDS011;4923;52.520;13.494;2023-04-24T00:24:35;3.92;;;3.25;;
9767;SDS011;4923;52.520;13.494;2023-04-24T00:27:22;3.00;;;2.90;;
9767;SDS011;4923;52.520;13.494;2023-04-24T00:30:09;3.67;;;3.33;;
9767;SDS011;4923;52.520;13.494;2023-04-24T00:32:56;3.05;;;2.92;;
9767;SDS011;4923;52.520;13.494;2023-04-24T00:35:45;2.90;;;2.80;;
9767;SDS011;4923;52.520;13.494;2023-04-24T00:38:31;2.95;;;2.85;;
9767;SDS011;4923;52.520;13.494;2023-04-24T00:41:18;4.43;;;3.10;;
9767;SDS011;4923;52.520;13.494;2023-04-24T00:44:06;3.30;;;3.20;;
9767;SDS011;4923;52.520;13.494;2023-04-24T00:46:53;3.40;;;3.20;;
9767;SDS011;4923;52.520;13.494;2023-04-24T00:49:41;3.45;;;3.15;;
9767;SDS011;4923;52.520;13.494;2023-04-24T00:52:29;3.42;;;3.28;;
9767;SDS011;4923;52.520;13.494;2023-04-24T00:55:17;3.03;;;2.92;;
9767;SDS011;4923;52.520;13.494;2023-04-24T00:58:04;3.20;;;3.10;;
9767;SDS011;4923;52.520;13.494;2023-04-24T01:00:51;3.95;;;3.65;;
9767;SDS011;4923;52.520;13.494;2023-04-24T01:03:39;3.75;;;3.42;;
9767;SDS011;4923;52.520;13.494;2023-04-24T01:06:27;4.50;;;3.53;;
9767;SDS011;4923;52.520;13.494;2023-04-24T01:09:17;7.35;;;3.70;;
9767;SDS011;4923;52.520;13.494;2023-04-24T01:12:05;4.10;;;3.90;;
9767;SDS011;4923;52.520;13.494;2023-04-24T01:14:52;3.33;;;3.13;;
9767;SDS011;4923;52.520;13.494;2023-04-24T01:17:40;5.38;;;4.25;;
9767;SDS011;4923;52.520;13.494;2023-04-24T01:20:26;3.70;;;3.50;;
9767;SDS011;4923;52.520;13.494;2023-04-24T01:23:16;3.88;;;3.63;;
9767;SDS011;4923;52.520;13.494;2023-04-24T01:26:03;3.80;;;3.60;;
9767;SDS011;4923;52.520;13.494;2023-04-24T01:28:50;3.83;;;3.72;;
9767;SDS011;4923;52.520;13.494;2023-04-24T01:31:37;3.83;;;3.40;;
9767;SDS011;4923;52.520;13.494;2023-04-24T01:34:25;2.92;;;2.83;;
9767;SDS011;4923;52.520;13.494;2023-04-24T01:37:13;5.38;;;3.67;;
9767;SDS011;4923;52.520;13.494;2023-04-24T01:40:02;4.10;;;3.90;;
9767;SDS011;4923;52.520;13.494;2023-04-24T01:42:49;3.42;;;3.20;;
9767;SDS011;4923;52.520;13.494;2023-04-24T01:45:37;4.72;;;3.20;;
9767;SDS011;4923;52.520;13.494;2023-04-24T01:48:24;3.13;;;3.05;;
9767;SDS011;4923;52.520;13.494;2023-04-24T01:51:11;5.85;;;5.30;;
9767;SDS011;4923;52.520;13.494;2023-04-24T01:53:59;3.30;;;3.20;;
9767;SDS011;4923;52.520;13.494;2023-04-24T01:56:47;3.40;;;3.30;;
9767;SDS011;4923;52.520;13.494;2023-04-24T01:59:34;3.50;;;3.40;;
9767;SDS011;4923;52.520;13.494;2023-04-24T02:02:21;4.05;;;3.85;;
9767;SDS011;4923;52.520;13.494;2023-04-24T02:05:09;2.92;;;2.92;;
9767;SDS011;4923;52.520;13.494;2023-04-24T02:07:56;3.67;;;3.58;;
9767;SDS011;4923;52.520;13.494;2023-04-24T02:10:43;3.35;;;3.25;;
9767;SDS011;4923;52.520;13.494;2023-04-24T02:13:31;3.63;;;3.42;;
9767;SDS011;4923;52.520;13.494;2023-04-24T02:16:18;3.28;;;3.10;;
9767;SDS011;4923;52.520;13.494;2023-04-24T02:19:05;4.60;;;3.90;;
9767;SDS011;4923;52.520;13.494;2023-04-24T02:21:52;4.40;;;4.10;;
9767;SDS011;4923;52.520;13.494;2023-04-24T02:24:39;5.25;;;4.70;;
9767;SDS011;4923;52.520;13.494;2023-04-24T02:27:26;3.67;;;3.50;;
9767;SDS011;4923;52.520;13.494;2023-04-24T02:30:14;4.38;;;4.00;;
9767;SDS011;4923;52.520;13.494;2023-04-24T02:33:01;4.38;;;4.07;;
9767;SDS011;4923;52.520;13.494;2023-04-24T02:35:48;3.47;;;3.33;;
9767;SDS011;4923;52.520;13.494;2023-04-24T02:38:35;3.75;;;3.55;;
9767;SDS011;4923;52.520;13.494;2023-04-24T02:41:22;4.53;;;4.22;;
9767;SDS011;4923;52.520;13.494;2023-04-24T02:44:09;4.82;;;4.63;;
9767;SDS011;4923;52.520;13.494;2023-04-24T02:46:57;4.30;;;3.90;;
9767;SDS011;4923;52.520;13.494;2023-04-24T02:49:44;3.85;;;3.72;;
9767;SDS011;4923;52.520;13.494;2023-04-24T02:52:31;3.85;;;3.65;;
9767;SDS011;4923;52.520;13.494;2023-04-24T02:55:17;4.43;;;4.22;;
9767;SDS011;4923;52.520;13.494;2023-04-24T02:58:04;4.60;;;4.30;;
9767;SDS011;4923;52.520;13.494;2023-04-24T03:00:53;4.00;;;3.80;;
9767;SDS011;4923;52.520;13.494;2023-04-24T03:03:42;4.93;;;4.63;;
9767;SDS011;4923;52.520;13.494;2023-04-24T03:06:29;5.10;;;4.70;;
9767;SDS011;4923;52.520;13.494;2023-04-24T03:09:16;4.15;;;3.95;;
9767;SDS011;4923;52.520;13.494;2023-04-24T03:12:03;4.50;;;4.28;;
9767;SDS011;4923;52.520;13.494;2023-04-24T03:14:50;4.80;;;4.60;;
9767;SDS011;4923;52.520;13.494;2023-04-24T03:17:37;5.80;;;4.50;;
9767;SDS011;4923;52.520;13.494;2023-04-24T03:20:25;3.95;;;3.80;;
9767;SDS011;4923;52.520;13.494;2023-04-24T03:23:12;4.50;;;4.30;;
9767;SDS011;4923;52.520;13.494;2023-04-24T03:25:59;4.70;;;4.50;;
9767;SDS011;4923;52.520;13.494;2023-04-24T03:28:45;5.10;;;4.00;;
9767;SDS011;4923;52.520;13.494;2023-04-24T03:31:32;5.07;;;4.78;;
9767;SDS011;4923;52.520;13.494;2023-04-24T03:34:19;4.68;;;4.47;;
9767;SDS011;4923;52.520;13.494;2023-04-24T03:37:07;6.15;;;5.65;;
9767;SDS011;4923;52.520;13.494;2023-04-24T03:39:54;4.68;;;4.47;;
9767;SDS011;4923;52.520;13.494;2023-04-24T03:42:41;4.20;;;4.00;;
9767;SDS011;4923;52.520;13.494;2023-04-24T03:45:28;5.15;;;3.72;;
9767;SDS011;4923;52.520;13.494;2023-04-24T03:48:15;5.20;;;4.63;;
9767;SDS011;4923;52.520;13.494;2023-04-24T03:51:02;4.10;;;3.72;;
9767;SDS011;4923;52.520;13.494;2023-04-24T03:53:50;4.60;;;4.32;;
9767;SDS011;4923;52.520;13.494;2023-04-24T03:56:37;7.32;;;3.60;;
9767;SDS011;4923;52.520;13.494;2023-04-24T03:59:24;4.28;;;3.88;;
9767;SDS011;4923;52.520;13.494;2023-04-24T04:02:11;4.40;;;4.13;;
9767;SDS011;4923;52.520;13.494;2023-04-24T04:04:58;4.70;;;3.80;;
9767;SDS011;4923;52.520;13.494;2023-04-24T04:07:45;4.07;;;3.88;;
9767;SDS011;4923;52.520;13.494;2023-04-24T04:10:33;3.83;;;3.72;;
9767;SDS011;4923;52.520;13.494;2023-04-24T04:13:20;4.10;;;3.90;;
9767;SDS011;4923;52.520;13.494;2023-04-24T04:16:07;3.40;;;3.30;;
9767;SDS011;4923;52.520;13.494;2023-04-24T04:18:55;4.70;;;4.32;;
9767;SDS011;4923;52.520;13.494;2023-04-24T04:21:42;3.60;;;3.40;;
9767;SDS011;4923;52.520;13.494;2023-04-24T04:24:31;4.13;;;3.92;;
9767;SDS011;4923;52.520;13.494;2023-04-24T04:27:19;3.53;;;3.35;;
9767;SDS011;4923;52.520;13.494;2023-04-24T04:30:07;3.78;;;3.58;;
9767;SDS011;4923;52.520;13.494;2023-04-24T04:32:55;3.83;;;3.17;;
9767;SDS011;4923;52.520;13.494;2023-04-24T04:35:41;3.08;;;2.90;;
9767;SDS011;4923;52.520;13.494;2023-04-24T04:38:28;3.38;;;3.17;;
9767;SDS011;4923;52.520;13.494;2023-04-24T04:41:15;4.47;;;4.03;;
9767;SDS011;4923;52.520;13.494;2023-04-24T04:44:04;3.65;;;3.55;;
9767;SDS011;4923;52.520;13.494;2023-04-24T04:46:51;4.40;;;3.80;;
9767;SDS011;4923;52.520;13.494;2023-04-24T04:49:41;3.50;;;3.30;;
9767;SDS011;4923;52.520;13.494;2023-04-24T04:52:28;3.80;;;3.50;;
9767;SDS011;4923;52.520;13.494;2023-04-24T04:55:15;8.48;;;3.50;;
9767;SDS011;4923;52.520;13.494;2023-04-24T04:58:02;3.42;;;3.33;;
9767;SDS011;4923;52.520;13.494;2023-04-24T05:00:50;3.45;;;3.33;;
9767;SDS011;4923;52.520;13.494;2023-04-24T05:03:37;3.50;;;3.40;;
9767;SDS011;4923;52.520;13.494;2023-04-24T05:06:24;5.47;;;3.35;;
9767;SDS011;4923;52.520;13.494;2023-04-24T05:09:11;2.55;;;2.45;;
9767;SDS011;4923;52.520;13.494;2023-04-24T05:11:58;2.72;;;2.63;;
9767;SDS011;4923;52.520;13.494;2023-04-24T05:14:44;9.30;;;3.08;;
9767;SDS011;4923;52.520;13.494;2023-04-24T05:17:33;2.53;;;2.42;;
9767;SDS011;4923;52.520;13.494;2023-04-24T05:20:20;2.85;;;2.65;;
9767;SDS011;4923;52.520;13.494;2023-04-24T05:23:07;3.25;;;3.03;;
9767;SDS011;4923;52.520;13.494;2023-04-24T05:25:53;4.10;;;3.00;;
9767;SDS011;4923;52.520;13.494;2023-04-24T05:28:40;2.47;;;2.38;;
9767;SDS011;4923;52.520;13.494;2023-04-24T05:31:27;7.93;;;2.90;;
9767;SDS011;4923;52.520;13.494;2023-04-24T05:34:15;3.00;;;2.73;;
9767;SDS011;4923;52.520;13.494;2023-04-24T05:37:02;2.60;;;2.50;;
9767;SDS011;4923;52.520;13.494;2023-04-24T05:39:53;14.07;;;3.10;;
9767;SDS011;4923;52.520;13.494;2023-04-24T05:42:40;4.17;;;2.63;;
9767;SDS011;4923;52.520;13.494;2023-04-24T05:45:27;2.10;;;2.00;;
9767;SDS011;4923;52.520;13.494;2023-04-24T05:48:14;6.93;;;2.60;;
9767;SDS011;4923;52.520;13.494;2023-04-24T05:51:02;14.57;;;2.60;;
9767;SDS011;4923;52.520;13.494;2023-04-24T05:53:49;2.13;;;1.73;;
9767;SDS011;4923;52.520;13.494;2023-04-24T05:56:36;1.40;;;1.40;;
9767;SDS011;4923;52.520;13.494;2023-04-24T05:59:23;5.07;;;2.40;;
9767;SDS011;4923;52.520;13.494;2023-04-24T06:02:11;1.40;;;1.40;;
9767;SDS011;4923;52.520;13.494;2023-04-24T06:04:58;2.00;;;1.90;;
9767;SDS011;4923;52.520;13.494;2023-04-24T06:07:46;3.43;;;1.73;;
9767;SDS011;4923;52.520;13.494;2023-04-24T06:10:34;2.60;;;2.07;;
9767;SDS011;4923;52.520;13.494;2023-04-24T06:13:21;4.83;;;2.00;;
9767;SDS011;4923;52.520;13.494;2023-04-24T06:16:07;2.50;;;1.23;;
9767;SDS011;4923;52.520;13.494;2023-04-24T06:18:54;2.13;;;1.93;;
9767;SDS011;4923;52.520;13.494;2023-04-24T06:21:41;3.63;;;1.47;;
9767;SDS011;4923;52.520;13.494;2023-04-24T06:24:29;1.30;;;1.20;;
9767;SDS011;4923;52.520;13.494;2023-04-24T06:27:16;2.10;;;0.90;;
9767;SDS011;4923;52.520;13.494;2023-04-24T06:30:03;1.23;;;1.23;;
9767;SDS011;4923;52.520;13.494;2023-04-24T06:32:52;1.80;;;1.10;;
9767;SDS011;4923;52.520;13.494;2023-04-24T06:35:39;0.93;;;0.90;;
9767;SDS011;4923;52.520;13.494;2023-04-24T06:38:25;1.57;;;1.33;;
9767;SDS011;4923;52.520;13.494;2023-04-24T06:41:14;1.03;;;0.87;;
9767;SDS011;4923;52.520;13.494;2023-04-24T06:44:01;1.90;;;1.00;;
9767;SDS011;4923;52.520;13.494;2023-04-24T06:46:48;1.10;;;1.10;;
9767;SDS011;4923;52.520;13.494;2023-04-24T06:49:35;1.70;;;0.67;;
9767;SDS011;4923;52.520;13.494;2023-04-24T06:52:22;3.23;;;1.10;;
9767;SDS011;4923;52.520;13.494;2023-04-24T06:55:09;1.00;;;0.90;;
9767;SDS011;4923;52.520;13.494;2023-04-24T06:57:57;2.07;;;0.80;;
9767;SDS011;4923;52.520;13.494;2023-04-24T07:00:44;1.40;;;0.70;;
9767;SDS011;4923;52.520;13.494;2023-04-24T07:03:31;1.17;;;0.80;;
9767;SDS011;4923;52.520;13.494;2023-04-24T07:06:18;2.00;;;0.80;;
9767;SDS011;4923;52.520;13.494;2023-04-24T07:09:07;1.20;;;0.83;;
9767;SDS011;4923;52.520;13.494;2023-04-24T07:11:54;0.70;;;0.70;;
9767;SDS011;4923;52.520;13.494;2023-04-24T07:14:43;0.60;;;0.60;;
9767;SDS011;4923;52.520;13.494;2023-04-24T07:17:30;2.27;;;0.53;;
9767;SDS011;4923;52.520;13.494;2023-04-24T07:20:17;0.63;;;0.63;;
9767;SDS011;4923;52.520;13.494;2023-04-24T07:23:04;1.30;;;0.50;;
9767;SDS011;4923;52.520;13.494;2023-04-24T07:25:51;0.70;;;0.70;;
9767;SDS011;4923;52.520;13.494;2023-04-24T07:28:38;1.57;;;0.90;;
9767;SDS011;4923;52.520;13.494;2023-04-24T07:31:26;1.33;;;0.80;;
9767;SDS011;4923;52.520;13.494;2023-04-24T07:34:13;25.40;;;6.27;;
9767;SDS011;4923;52.520;13.494;2023-04-24T07:37:00;5.30;;;1.13;;
9767;SDS011;4923;52.520;13.494;2023-04-24T07:39:48;2.20;;;1.30;;
9767;SDS011;4923;52.520;13.494;2023-04-24T07:42:35;1.27;;;0.60;;
9767;SDS011;4923;52.520;13.494;2023-04-24T07:45:22;0.83;;;0.43;;
9767;SDS011;4923;52.520;13.494;2023-04-24T07:48:12;0.47;;;0.47;;
9767;SDS011;4923;52.520;13.494;2023-04-24T07:51:01;0.55;;;0.40;;
9767;SDS011;4923;52.520;13.494;2023-04-24T07:53:48;0.77;;;0.30;;
9767;SDS011;4923;52.520;13.494;2023-04-24T07:56:35;0.33;;;0.33;;
9767;SDS011;4923;52.520;13.494;2023-04-24T07:59:24;1.50;;;0.43;;
9767;SDS011;4923;52.520;13.494;2023-04-24T08:02:10;0.50;;;0.50;;
9767;SDS011;4923;52.520;13.494;2023-04-24T08:04:59;0.40;;;0.40;;
9767;SDS011;4923;52.520;13.494;2023-04-24T08:07:46;0.97;;;0.40;;
9767;SDS011;4923;52.520;13.494;2023-04-24T08:10:33;0.40;;;0.40;;
9767;SDS011;4923;52.520;13.494;2023-04-24T08:13:21;0.40;;;0.40;;
9767;SDS011;4923;52.520;13.494;2023-04-24T08:16:08;0.50;;;0.40;;
9767;SDS011;4923;52.520;13.494;2023-04-24T08:18:55;0.37;;;0.37;;
9767;SDS011;4923;52.520;13.494;2023-04-24T08:21:43;0.40;;;0.40;;
9767;SDS011;4923;52.520;13.494;2023-04-24T08:24:30;0.50;;;0.50;;
9767;SDS011;4923;52.520;13.494;2023-04-24T08:27:17;0.40;;;0.40;;
9767;SDS011;4923;52.520;13.494;2023-04-24T08:30:04;7.40;;;0.40;;
9767;SDS011;4923;52.520;13.494;2023-04-24T08:32:51;0.77;;;0.40;;
9767;SDS011;4923;52.520;13.494;2023-04-24T08:35:38;2.13;;;0.40;;
9767;SDS011;4923;52.520;13.494;2023-04-24T08:38:27;0.30;;;0.30;;
9767;SDS011;4923;52.520;13.494;2023-04-24T08:41:14;0.40;;;0.40;;
9767;SDS011;4923;52.520;13.494;2023-04-24T08:44:01;0.73;;;0.57;;
9767;SDS011;4923;52.520;13.494;2023-04-24T08:46:48;0.43;;;0.43;;
9767;SDS011;4923;52.520;13.494;2023-04-24T08:49:36;0.40;;;0.40;;
9767;SDS011;4923;52.520;13.494;2023-04-24T08:52:25;0.50;;;0.50;;
9767;SDS011;4923;52.520;13.494;2023-04-24T08:55:15;0.40;;;0.40;;
9767;SDS011;4923;52.520;13.494;2023-04-24T08:58:03;0.50;;;0.50;;
9767;SDS011;4923;52.520;13.494;2023-04-24T09:00:50;1.00;;;0.47;;
9767;SDS011;4923;52.520;13.494;2023-04-24T09:03:37;0.40;;;0.40;;
9767;SDS011;4923;52.520;13.494;2023-04-24T09:06:25;1.70;;;0.47;;
9767;SDS011;4923;52.520;13.494;2023-04-24T09:09:12;2.10;;;0.40;;
9767;SDS011;4923;52.520;13.494;2023-04-24T09:12:01;0.40;;;0.40;;
9767;SDS011;4923;52.520;13.494;2023-04-24T09:14:49;0.40;;;0.40;;
9767;SDS011;4923;52.520;13.494;2023-04-24T09:17:36;0.40;;;0.40;;
9767;SDS011;4923;52.520;13.494;2023-04-24T09:20:24;1.80;;;0.37;;
9767;SDS011;4923;52.520;13.494;2023-04-24T09:23:10;0.63;;;0.50;;
9767;SDS011;4923;52.520;13.494;2023-04-24T09:26:03;0.73;;;0.67;;
9767;SDS011;4923;52.520;13.494;2023-04-24T09:28:53;1.23;;;0.50;;
9767;SDS011;4923;52.520;13.494;2023-04-24T09:31:40;0.40;;;0.40;;
9767;SDS011;4923;52.520;13.494;2023-04-24T09:34:27;2.73;;;0.40;;
9767;SDS011;4923;52.520;13.494;2023-04-24T09:37:18;1.80;;;0.40;;
9767;SDS011;4923;52.520;13.494;2023-04-24T09:40:15;0.40;;;0.40;;
9767;SDS011;4923;52.520;13.494;2023-04-24T09:43:02;0.40;;;0.40;;
9767;SDS011;4923;52.520;13.494;2023-04-24T09:45:51;2.00;;;0.50;;
9767;SDS011;4923;52.520;13.494;2023-04-24T09:48:42;1.40;;;0.50;;
9767;SDS011;4923;52.520;13.494;2023-04-24T09:51:33;6.47;;;0.70;;
9767;SDS011;4923;52.520;13.494;2023-04-24T09:54:21;1.03;;;0.40;;
9767;SDS011;4923;52.520;13.494;2023-04-24T09:57:10;2.60;;;0.50;;
9767;SDS011;4923;52.520;13.494;2023-04-24T09:59:56;0.47;;;0.47;;
9767;SDS011;4923;52.520;13.494;2023-04-24T10:02:45;0.50;;;0.50;;
9767;SDS011;4923;52.520;13.494;2023-04-24T10:05:36;3.13;;;0.70;;
9767;SDS011;4923;52.520;13.494;2023-04-24T10:08:24;0.30;;;0.30;;
9767;SDS011;4923;52.520;13.494;2023-04-24T10:11:11;0.83;;;0.50;;
9767;SDS011;4923;52.520;13.494;2023-04-24T10:13:59;0.40;;;0.40;;
9767;SDS011;4923;52.520;13.494;2023-04-24T10:16:46;0.47;;;0.47;;
9767;SDS011;4923;52.520;13.494;2023-04-24T10:19:35;0.40;;;0.40;;
9767;SDS011;4923;52.520;13.494;2023-04-24T10:22:23;0.40;;;0.30;;
9767;SDS011;4923;52.520;13.494;2023-04-24T10:25:10;0.90;;;0.50;;
9767;SDS011;4923;52.520;13.494;2023-04-24T10:27:58;0.60;;;0.60;;
9767;SDS011;4923;52.520;13.494;2023-04-24T10:30:46;0.93;;;0.50;;
9767;SDS011;4923;52.520;13.494;2023-04-24T10:33:35;0.47;;;0.47;;
9767;SDS011;4923;52.520;13.494;2023-04-24T10:36:23;0.50;;;0.50;;
9767;SDS011;4923;52.520;13.494;2023-04-24T10:39:12;0.97;;;0.50;;
9767;SDS011;4923;52.520;13.494;2023-04-24T10:42:00;0.60;;;0.40;;
9767;SDS011;4923;52.520;13.494;2023-04-24T10:44:47;0.40;;;0.40;;
9767;SDS011;4923;52.520;13.494;2023-04-24T10:47:39;0.40;;;0.40;;
9767;SDS011;4923;52.520;13.494;2023-04-24T10:50:26;0.67;;;0.30;;
9767;SDS011;4923;52.520;13.494;2023-04-24T10:53:17;0.40;;;0.40;;
9767;SDS011;4923;52.520;13.494;2023-04-24T10:56:05;0.77;;;0.50;;
9767;SDS011;4923;52.520;13.494;2023-04-24T10:58:54;0.57;;;0.50;;
9767;SDS011;4923;52.520;13.494;2023-04-24T11:01:41;2.23;;;0.57;;
9767;SDS011;4923;52.520;13.494;2023-04-24T11:04:39;0.80;;;0.40;;
9767;SDS011;4923;52.520;13.494;2023-04-24T11:07:28;1.37;;;0.40;;
9767;SDS011;4923;52.520;13.494;2023-04-24T11:10:25;0.37;;;0.37;;
9767;SDS011;4923;52.520;13.494;2023-04-24T11:13:14;2.00;;;0.67;;
9767;SDS011;4923;52.520;13.494;2023-04-24T11:16:20;1.70;;;0.50;;
9767;SDS011;4923;52.520;13.494;2023-04-24T11:19:08;4.00;;;0.50;;
9767;SDS011;4923;52.520;13.494;2023-04-24T11:21:58;5.00;;;0.70;;
9767;SDS011;4923;52.520;13.494;2023-04-24T11:24:49;1.70;;;0.60;;
9767;SDS011;4923;52.520;13.494;2023-04-24T11:27:39;0.83;;;0.50;;
9767;SDS011;4923;52.520;13.494;2023-04-24T11:30:28;2.10;;;0.50;;
9767;SDS011;4923;52.520;13.494;2023-04-24T11:33:15;0.50;;;0.50;;
9767;SDS011;4923;52.520;13.494;2023-04-24T11:36:06;0.50;;;0.50;;
9767;SDS011;4923;52.520;13.494;2023-04-24T11:38:53;0.50;;;0.50;;
9767;SDS011;4923;52.520;13.494;2023-04-24T11:41:40;0.50;;;0.50;;
9767;SDS011;4923;52.520;13.494;2023-04-24T11:44:29;1.50;;;0.47;;
9767;SDS011;4923;52.520;13.494;2023-04-24T11:47:17;0.87;;;0.43;;
9767;SDS011;4923;52.520;13.494;2023-04-24T11:50:04;0.53;;;0.50;;
9767;SDS011;4923;52.520;13.494;2023-04-24T11:52:53;0.40;;;0.40;;
9767;SDS011;4923;52.520;13.494;2023-04-24T11:55:41;0.50;;;0.50;;
9767;SDS011;4923;52.520;13.494;2023-04-24T11:58:27;0.93;;;0.43;;
9767;SDS011;4923;52.520;13.494;2023-04-24T12:01:16;0.83;;;0.40;;
9767;SDS011;4923;52.520;13.494;2023-04-24T12:04:02;0.40;;;0.40;;
9767;SDS011;4923;52.520;13.494;2023-04-24T12:06:58;1.00;;;0.40;;
9767;SDS011;4923;52.520;13.494;2023-04-24T12:09:46;1.50;;;0.50;;
9767;SDS011;4923;52.520;13.494;2023-04-24T12:12:35;1.03;;;0.50;;
9767;SDS011;4923;52.520;13.494;2023-04-24T12:15:22;0.50;;;0.50;;
9767;SDS011;4923;52.520;13.494;2023-04-24T12:18:12;6.13;;;0.93;;
9767;SDS011;4923;52.520;13.494;2023-04-24T12:21:15;2.33;;;0.53;;
9767;SDS011;4923;52.520;13.494;2023-04-24T12:24:05;1.53;;;0.50;;
9767;SDS011;4923;52.520;13.494;2023-04-24T12:26:52;0.40;;;0.40;;
9767;SDS011;4923;52.520;13.494;2023-04-24T12:29:50;0.67;;;0.67;;
9767;SDS011;4923;52.520;13.494;2023-04-24T12:32:40;0.50;;;0.40;;
9767;SDS011;4923;52.520;13.494;2023-04-24T12:35:30;1.03;;;0.50;;
9767;SDS011;4923;52.520;13.494;2023-04-24T12:38:22;0.60;;;0.60;;
9767;SDS011;4923;52.520;13.494;2023-04-24T12:41:12;5.30;;;0.40;;
9767;SDS011;4923;52.520;13.494;2023-04-24T12:44:00;0.50;;;0.50;;
9767;SDS011;4923;52.520;13.494;2023-04-24T12:46:47;0.40;;;0.40;;
9767;SDS011;4923;52.520;13.494;2023-04-24T12:49:34;10.67;;;0.43;;
9767;SDS011;4923;52.520;13.494;2023-04-24T12:52:22;0.33;;;0.33;;
9767;SDS011;4923;52.520;13.494;2023-04-24T12:55:10;2.27;;;0.60;;
9767;SDS011;4923;52.520;13.494;2023-04-24T12:57:58;0.87;;;0.40;;
9767;SDS011;4923;52.520;13.494;2023-04-24T13:00:45;0.30;;;0.30;;
9767;SDS011;4923;52.520;13.494;2023-04-24T13:03:32;1.17;;;0.40;;
9767;SDS011;4923;52.520;13.494;2023-04-24T13:06:19;0.50;;;0.40;;
9767;SDS011;4923;52.520;13.494;2023-04-24T13:09:07;2.87;;;0.33;;
9767;SDS011;4923;52.520;13.494;2023-04-24T13:11:55;0.40;;;0.40;;
9767;SDS011;4923;52.520;13.494;2023-04-24T13:14:42;0.40;;;0.40;;
9767;SDS011;4923;52.520;13.494;2023-04-24T13:17:28;0.33;;;0.33;;
9767;SDS011;4923;52.520;13.494;2023-04-24T13:20:15;1.97;;;0.50;;
9767;SDS011;4923;52.520;13.494;2023-04-24T13:23:02;0.40;;;0.40;;
9767;SDS011;4923;52.520;13.494;2023-04-24T13:25:51;2.13;;;0.50;;
9767;SDS011;4923;52.520;13.494;2023-04-24T13:28:40;2.43;;;0.43;;
9767;SDS011;4923;52.520;13.494;2023-04-24T13:31:27;1.00;;;0.40;;
9767;SDS011;4923;52.520;13.494;2023-04-24T13:34:15;1.37;;;0.40;;
9767;SDS011;4923;52.520;13.494;2023-04-24T13:37:02;2.00;;;0.40;;
9767;SDS011;4923;52.520;13.494;2023-04-24T13:39:50;0.57;;;0.57;;
9767;SDS011;4923;52.520;13.494;2023-04-24T13:42:38;0.50;;;0.50;;
9767;SDS011;4923;52.520;13.494;2023-04-24T13:45:26;0.40;;;0.40;;
9767;SDS011;4923;52.520;13.494;2023-04-24T13:48:13;0.40;;;0.40;;
9767;SDS011;4923;52.520;13.494;2023-04-24T13:51:00;0.90;;;0.30;;
9767;SDS011;4923;52.520;13.494;2023-04-24T13:53:47;0.40;;;0.40;;
9767;SDS011;4923;52.520;13.494;2023-04-24T13:56:34;0.40;;;0.40;;
9767;SDS011;4923;52.520;13.494;2023-04-24T13:59:22;0.40;;;0.40;;
9767;SDS011;4923;52.520;13.494;2023-04-24T14:02:10;4.50;;;0.40;;
9767;SDS011;4923;52.520;13.494;2023-04-24T14:04:57;1.97;;;0.50;;
9767;SDS011;4923;52.520;13.494;2023-04-24T14:07:43;0.87;;;0.50;;
9767;SDS011;4923;52.520;13.494;2023-04-24T14:10:30;0.50;;;0.50;;
9767;SDS011;4923;52.520;13.494;2023-04-24T14:13:17;0.33;;;0.33;;
9767;SDS011;4923;52.520;13.494;2023-04-24T14:16:06;0.30;;;0.30;;
9767;SDS011;4923;52.520;13.494;2023-04-24T14:18:53;3.10;;;0.53;;
9767;SDS011;4923;52.520;13.494;2023-04-24T14:21:40;1.87;;;0.50;;
9767;SDS011;4923;52.520;13.494;2023-04-24T14:24:26;1.07;;;0.40;;
9767;SDS011;4923;52.520;13.494;2023-04-24T14:27:13;2.20;;;0.40;;
9767;SDS011;4923;52.520;13.494;2023-04-24T14:30:00;0.40;;;0.40;;
9767;SDS011;4923;52.520;13.494;2023-04-24T14:32:49;0.40;;;0.40;;
9767;SDS011;4923;52.520;13.494;2023-04-24T14:35:36;0.97;;;0.87;;
9767;SDS011;4923;52.520;13.494;2023-04-24T14:38:23;0.40;;;0.40;;
9767;SDS011;4923;52.520;13.494;2023-04-24T14:41:10;3.50;;;0.43;;
9767;SDS011;4923;52.520;13.494;2023-04-24T14:43:57;3.03;;;0.50;;
9767;SDS011;4923;52.520;13.494;2023-04-24T14:46:44;0.97;;;0.40;;
9767;SDS011;4923;52.520;13.494;2023-04-24T14:49:32;0.50;;;0.50;;
9767;SDS011;4923;52.520;13.494;2023-04-24T14:52:19;6.60;;;0.50;;
9767;SDS011;4923;52.520;13.494;2023-04-24T14:55:06;0.40;;;0.40;;
9767;SDS011;4923;52.520;13.494;2023-04-24T14:57:54;0.50;;;0.50;;
9767;SDS011;4923;52.520;13.494;2023-04-24T15:00:41;0.40;;;0.40;;
9767;SDS011;4923;52.520;13.494;2023-04-24T15:03:28;1.47;;;0.47;;
9767;SDS011;4923;52.520;13.494;2023-04-24T15:06:17;0.40;;;0.40;;
9767;SDS011;4923;52.520;13.494;2023-04-24T15:09:05;0.40;;;0.40;;
9767;SDS011;4923;52.520;13.494;2023-04-24T15:11:52;0.97;;;0.50;;
9767;SDS011;4923;52.520;13.494;2023-04-24T15:14:39;1.10;;;0.50;;
9767;SDS011;4923;52.520;13.494;2023-04-24T15:17:26;0.50;;;0.50;;
9767;SDS011;4923;52.520;13.494;2023-04-24T15:20:12;0.43;;;0.43;;
9767;SDS011;4923;52.520;13.494;2023-04-24T15:23:01;0.93;;;0.80;;
9767;SDS011;4923;52.520;13.494;2023-04-24T15:25:47;0.90;;;0.50;;
9767;SDS011;4923;52.520;13.494;2023-04-24T15:28:34;4.83;;;0.50;;
9767;SDS011;4923;52.520;13.494;2023-04-24T15:31:21;0.60;;;0.60;;
9767;SDS011;4923;52.520;13.494;2023-04-24T15:34:08;0.70;;;0.60;;
9767;SDS011;4923;52.520;13.494;2023-04-24T15:36:55;0.50;;;0.50;;
9767;SDS011;4923;52.520;13.494;2023-04-24T15:39:43;0.60;;;0.60;;
9767;SDS011;4923;52.520;13.494;2023-04-24T15:42:31;4.00;;;0.60;;
9767;SDS011;4923;52.520;13.494;2023-04-24T15:45:18;0.83;;;0.50;;
9767;SDS011;4923;52.520;13.494;2023-04-24T15:48:05;0.50;;;0.50;;
9767;SDS011;4923;52.520;13.494;2023-04-24T15:50:52;0.77;;;0.47;;
9767;SDS011;4923;52.520;13.494;2023-04-24T15:53:38;0.60;;;0.60;;
9767;SDS011;4923;52.520;13.494;2023-04-24T15:56:27;0.50;;;0.50;;
9767;SDS011;4923;52.520;13.494;2023-04-24T15:59:13;3.10;;;0.50;;
9767;SDS011;4923;52.520;13.494;2023-04-24T16:02:00;0.60;;;0.60;;
9767;SDS011;4923;52.520;13.494;2023-04-24T16:04:49;0.50;;;0.50;;
9767;SDS011;4923;52.520;13.494;2023-04-24T16:07:37;0.67;;;0.67;;
9767;SDS011;4923;52.520;13.494;2023-04-24T16:10:24;0.50;;;0.50;;
9767;SDS011;4923;52.520;13.494;2023-04-24T16:13:13;1.73;;;0.60;;
9767;SDS011;4923;52.520;13.494;2023-04-24T16:16:02;2.83;;;0.50;;
9767;SDS011;4923;52.520;13.494;2023-04-24T16:18:49;0.40;;;0.40;;
9767;SDS011;4923;52.520;13.494;2023-04-24T16:21:38;1.03;;;0.50;;
9767;SDS011;4923;52.520;13.494;2023-04-24T16:24:25;0.60;;;0.50;;
9767;SDS011;4923;52.520;13.494;2023-04-24T16:27:12;0.90;;;0.90;;
9767;SDS011;4923;52.520;13.494;2023-04-24T16:30:01;0.90;;;0.90;;
9767;SDS011;4923;52.520;13.494;2023-04-24T16:32:48;0.80;;;0.80;;
9767;SDS011;4923;52.520;13.494;2023-04-24T16:35:35;1.23;;;0.70;;
9767;SDS011;4923;52.520;13.494;2023-04-24T16:38:22;1.13;;;0.50;;
9767;SDS011;4923;52.520;13.494;2023-04-24T16:41:10;1.77;;;0.50;;
9767;SDS011;4923;52.520;13.494;2023-04-24T16:43:57;1.77;;;0.57;;
9767;SDS011;4923;52.520;13.494;2023-04-24T16:46:45;0.50;;;0.50;;
9767;SDS011;4923;52.520;13.494;2023-04-24T16:49:32;0.50;;;0.50;;
9767;SDS011;4923;52.520;13.494;2023-04-24T16:52:20;1.23;;;0.50;;
9767;SDS011;4923;52.520;13.494;2023-04-24T16:55:07;2.30;;;0.53;;
9767;SDS011;4923;52.520;13.494;2023-04-24T16:57:54;1.03;;;0.40;;
9767;SDS011;4923;52.520;13.494;2023-04-24T17:00:41;0.50;;;0.50;;
9767;SDS011;4923;52.520;13.494;2023-04-24T17:03:30;0.30;;;0.30;;
9767;SDS011;4923;52.520;13.494;2023-04-24T17:06:17;0.50;;;0.50;;